createdAt,value
2019-01-28T00:01:00.286Z,4.70
2019-01-28T00:03:29.550Z,4.70
2019-01-28T00:05:58.805Z,4.70
2019-01-28T00:08:28.101Z,4.70
2019-01-28T00:10:57.358Z,4.70
2019-01-28T00:13:26.610Z,4.70
2019-01-28T00:15:55.875Z,4.80
2019-01-28T00:18:25.127Z,4.80
2019-01-28T00:20:54.822Z,4.70
2019-01-28T00:23:24.073Z,4.70
2019-01-28T00:25:53.322Z,4.70
2019-01-28T00:28:22.611Z,4.70
2019-01-28T00:30:51.970Z,4.60
2019-01-28T00:33:21.240Z,4.60
2019-01-28T00:35:50.612Z,4.60
2019-01-28T00:38:19.864Z,4.60
2019-01-28T00:40:49.121Z,4.50
2019-01-28T00:43:18.401Z,4.40
2019-01-28T00:45:47.666Z,4.40
2019-01-28T00:48:16.921Z,4.50
2019-01-28T00:50:46.200Z,4.40
2019-01-28T00:53:15.461Z,4.40
2019-01-28T00:55:44.719Z,4.40
2019-01-28T00:58:14.084Z,4.30
2019-01-28T01:00:43.340Z,4.20
2019-01-28T01:03:12.588Z,4.20
2019-01-28T01:05:41.889Z,4.10
2019-01-28T01:08:11.143Z,4.10
2019-01-28T01:10:40.485Z,4.10
2019-01-28T01:13:09.817Z,4.00
2019-01-28T01:15:39.068Z,4.00
2019-01-28T01:18:08.332Z,3.90
2019-01-28T01:20:37.603Z,3.90
2019-01-28T01:23:06.873Z,4.00
2019-01-28T01:25:36.148Z,4.00
2019-01-28T01:28:05.431Z,4.00
2019-01-28T01:30:34.704Z,4.10
2019-01-28T01:33:03.981Z,4.10
2019-01-28T01:35:33.224Z,4.10
2019-01-28T01:38:02.484Z,4.20
2019-01-28T01:40:31.745Z,4.20
2019-01-28T01:43:01.001Z,4.20
2019-01-28T01:45:30.252Z,4.20
2019-01-28T01:47:59.533Z,4.20
2019-01-28T01:50:28.778Z,4.20
2019-01-28T01:52:58.017Z,4.30
2019-01-28T01:55:27.290Z,4.20
2019-01-28T01:57:56.573Z,4.10
2019-01-28T02:00:25.828Z,4.10
2019-01-28T02:02:55.120Z,4.10
2019-01-28T02:05:24.380Z,4.00
2019-01-28T02:07:53.634Z,4.00
2019-01-28T02:10:22.921Z,4.00
2019-01-28T02:12:52.173Z,3.90
2019-01-28T02:15:21.430Z,4.00
2019-01-28T02:17:50.725Z,4.00
2019-01-28T02:20:19.988Z,3.90
2019-01-28T02:22:49.236Z,3.90
2019-01-28T02:25:18.516Z,3.80
2019-01-28T02:27:47.789Z,3.80
2019-01-28T02:30:18.320Z,3.70
2019-01-28T02:32:47.617Z,3.60
2019-01-28T02:35:16.862Z,3.60
2019-01-28T02:37:46.118Z,3.50
2019-01-28T02:40:17.274Z,3.50
2019-01-28T02:42:46.725Z,3.50
2019-01-28T02:45:16.763Z,3.50
2019-01-28T02:47:46.035Z,3.50
2019-01-28T02:50:17.512Z,3.50
2019-01-28T02:52:47.032Z,3.50
2019-01-28T02:55:17.404Z,3.50
2019-01-28T02:57:47.178Z,3.50
2019-01-28T03:00:19.013Z,3.50
2019-01-28T03:02:48.292Z,3.50
2019-01-28T03:05:18.311Z,3.40
2019-01-28T03:07:47.770Z,3.40
2019-01-28T03:10:19.500Z,3.40
2019-01-28T03:12:48.943Z,3.40
2019-01-28T03:15:19.109Z,3.40
2019-01-28T03:17:48.382Z,3.40
2019-01-28T03:20:18.413Z,3.40
2019-01-28T03:22:47.872Z,3.40
2019-01-28T03:25:17.852Z,3.40
2019-01-28T03:27:47.305Z,3.40
2019-01-28T03:30:18.571Z,3.30
2019-01-28T03:32:47.986Z,3.30
2019-01-28T03:35:17.423Z,3.30
2019-01-28T03:37:46.693Z,3.30
2019-01-28T03:40:17.887Z,3.30
2019-01-28T03:42:47.188Z,3.30
2019-01-28T03:45:18.360Z,3.20
2019-01-28T03:47:47.853Z,3.20
2019-01-28T03:50:17.870Z,3.20
2019-01-28T03:52:47.438Z,3.10
2019-01-28T03:55:16.813Z,3.10
2019-01-28T03:57:46.146Z,3.10
2019-01-28T04:00:18.254Z,3.10
2019-01-28T04:02:47.648Z,3.00
2019-01-28T04:05:17.160Z,3.00
2019-01-28T04:07:46.419Z,3.00
2019-01-28T04:10:18.133Z,3.00
2019-01-28T04:12:47.407Z,3.00
2019-01-28T04:15:17.308Z,3.00
2019-01-28T04:17:46.597Z,3.10
2019-01-28T04:20:16.571Z,3.10
2019-01-28T04:22:45.850Z,3.20
2019-01-28T04:25:15.284Z,3.20
2019-01-28T04:27:44.536Z,3.30
2019-01-28T04:30:18.877Z,3.40
2019-01-28T04:32:48.200Z,3.30
2019-01-28T04:35:17.444Z,3.40
2019-01-28T04:37:46.734Z,3.40
2019-01-28T04:40:16.125Z,3.40
2019-01-28T04:42:45.380Z,3.50
2019-01-28T04:45:16.209Z,3.50
2019-01-28T04:47:45.522Z,3.50
2019-01-28T04:50:16.754Z,3.60
2019-01-28T04:52:46.297Z,3.60
2019-01-28T04:55:16.208Z,3.60
2019-01-28T04:57:45.587Z,3.50
2019-01-28T05:00:20.477Z,3.50
2019-01-28T05:02:49.742Z,3.50
2019-01-28T05:05:19.082Z,3.60
2019-01-28T05:07:48.366Z,3.50
2019-01-28T05:10:17.993Z,3.60
2019-01-28T05:12:47.575Z,3.60
2019-01-28T05:15:17.311Z,3.60
2019-01-28T05:17:46.869Z,3.70
2019-01-28T05:20:17.913Z,3.70
2019-01-28T05:22:47.298Z,3.70
2019-01-28T05:25:16.870Z,3.70
2019-01-28T05:27:46.737Z,3.70
2019-01-28T05:30:18.220Z,3.70
2019-01-28T05:32:47.911Z,3.70
2019-01-28T05:35:17.963Z,3.70
2019-01-28T05:37:47.375Z,3.70
2019-01-28T05:40:18.969Z,3.70
2019-01-28T05:42:48.317Z,3.70
2019-01-28T05:45:17.744Z,3.60
2019-01-28T05:47:47.064Z,3.60
2019-01-28T05:50:17.241Z,3.60
2019-01-28T05:52:46.510Z,3.50
2019-01-28T05:55:15.935Z,3.50
2019-01-28T05:57:45.290Z,3.50
2019-01-28T06:00:25.785Z,3.40
2019-01-28T06:02:55.038Z,3.40
2019-01-28T06:05:24.324Z,3.40
2019-01-28T06:07:53.608Z,3.40
2019-01-28T06:10:22.869Z,3.40
2019-01-28T06:12:52.117Z,3.40
2019-01-28T06:15:21.517Z,3.40
2019-01-28T06:17:50.837Z,3.40
2019-01-28T06:20:21.372Z,3.40
2019-01-28T06:22:53.592Z,3.40
2019-01-28T06:25:23.053Z,3.40
2019-01-28T06:27:52.310Z,3.40
2019-01-28T06:30:27.217Z,3.40
2019-01-28T06:32:56.855Z,3.40
2019-01-28T06:35:26.127Z,3.40
2019-01-28T06:37:55.517Z,3.30
2019-01-28T06:40:27.415Z,3.30
2019-01-28T06:42:56.667Z,3.30
2019-01-28T06:45:25.944Z,3.40
2019-01-28T06:47:56.131Z,3.40
2019-01-28T06:50:25.497Z,3.40
2019-01-28T06:52:54.855Z,3.40
2019-01-28T06:55:24.120Z,3.40
2019-01-28T06:57:53.470Z,3.40
2019-01-28T07:00:28.190Z,3.50
2019-01-28T07:02:57.659Z,3.40
2019-01-28T07:05:26.924Z,3.40
2019-01-28T07:07:56.269Z,3.50
2019-01-28T07:10:25.548Z,4.00
2019-01-28T07:12:54.872Z,5.60
2019-01-28T07:15:24.525Z,6.30
2019-01-28T07:17:54.966Z,6.50
2019-01-28T07:20:27.822Z,5.20
2019-01-28T07:22:57.453Z,4.50
2019-01-28T07:25:26.791Z,4.00
2019-01-28T07:27:56.059Z,3.90
2019-01-28T07:30:30.643Z,3.80
2019-01-28T07:33:00.117Z,3.80
2019-01-28T07:35:29.402Z,3.70
2019-01-28T07:37:58.701Z,3.70
2019-01-28T07:40:27.981Z,3.60
2019-01-28T07:42:57.234Z,3.60
2019-01-28T07:45:29.080Z,3.60
2019-01-28T07:48:03.025Z,3.60
2019-01-28T07:50:29.341Z,3.60
2019-01-28T07:52:58.809Z,3.50
2019-01-28T07:55:28.112Z,3.50
2019-01-28T07:57:57.376Z,3.60
2019-01-28T08:00:28.103Z,3.60
2019-01-28T08:02:57.401Z,3.50
2019-01-28T08:05:26.769Z,3.50
2019-01-28T08:07:56.144Z,3.60
2019-01-28T08:10:25.429Z,3.60
2019-01-28T08:12:55.512Z,3.60
2019-01-28T08:15:25.545Z,3.70
2019-01-28T08:17:54.861Z,3.60
2019-01-28T08:20:24.192Z,3.70
2019-01-28T08:22:53.764Z,3.70
2019-01-28T08:25:23.099Z,3.70
2019-01-28T08:27:52.473Z,3.70
2019-01-28T08:30:27.621Z,3.70
2019-01-28T08:32:56.913Z,3.70
2019-01-28T08:35:27.206Z,3.90
2019-01-28T08:37:56.529Z,3.90
2019-01-28T08:40:25.805Z,3.90
2019-01-28T08:42:55.081Z,3.90
2019-01-28T08:45:24.480Z,4.00
2019-01-28T08:47:53.740Z,4.00
2019-01-28T08:50:23.931Z,4.00
2019-01-28T08:52:53.426Z,4.10
2019-01-28T08:55:24.158Z,4.10
2019-01-28T08:57:53.662Z,4.10
2019-01-28T09:00:28.826Z,4.00
2019-01-28T09:02:58.109Z,4.00
2019-01-28T09:05:27.365Z,4.00
2019-01-28T09:07:56.770Z,4.00
2019-01-28T09:10:26.858Z,4.10
2019-01-28T09:12:56.188Z,4.00
2019-01-28T09:15:25.911Z,4.00
2019-01-28T09:17:55.604Z,3.90
2019-01-28T09:20:25.004Z,4.00
2019-01-28T09:22:54.311Z,4.10
2019-01-28T09:25:24.271Z,4.20
2019-01-28T09:27:53.541Z,4.10
2019-01-28T09:30:25.216Z,4.30
2019-01-28T09:32:54.500Z,4.40
2019-01-28T09:35:23.966Z,4.30
2019-01-28T09:37:53.243Z,4.40
2019-01-28T09:40:24.115Z,4.40
2019-01-28T09:42:53.497Z,4.40
2019-01-28T09:45:25.208Z,4.50
2019-01-28T09:47:54.486Z,4.50
2019-01-28T09:50:24.353Z,4.50
2019-01-28T09:52:54.454Z,4.50
2019-01-28T09:55:23.832Z,4.50
2019-01-28T09:57:53.090Z,4.60
2019-01-28T10:00:32.025Z,4.70
2019-01-28T10:03:01.303Z,4.80
2019-01-28T10:05:30.571Z,4.90
2019-01-28T10:07:59.874Z,5.10
2019-01-28T10:10:29.248Z,5.10
2019-01-28T10:12:58.517Z,5.10
2019-01-28T10:15:29.008Z,5.10
2019-01-28T10:17:58.542Z,5.20
2019-01-28T10:20:33.125Z,5.30
2019-01-28T10:23:02.433Z,5.30
2019-01-28T10:25:31.696Z,5.30
2019-01-28T10:28:00.973Z,5.40
2019-01-28T10:30:35.746Z,5.40
2019-01-28T10:33:06.380Z,5.40
2019-01-28T10:35:36.146Z,5.40
2019-01-28T10:38:06.256Z,5.50
2019-01-28T10:40:37.300Z,5.50
2019-01-28T10:43:07.617Z,5.30
2019-01-28T10:45:36.877Z,5.20
2019-01-28T10:48:07.465Z,5.20
2019-01-28T10:50:37.560Z,5.10
2019-01-28T10:53:07.044Z,5.10
2019-01-28T10:55:36.306Z,5.20
2019-01-28T10:58:06.280Z,5.10
2019-01-28T11:00:38.152Z,5.20
2019-01-28T11:03:08.679Z,5.20
2019-01-28T11:05:37.945Z,5.20
2019-01-28T11:08:07.725Z,5.20
2019-01-28T11:10:37.080Z,5.20
2019-01-28T11:13:07.210Z,5.10
2019-01-28T11:15:36.530Z,5.20
2019-01-28T11:18:09.814Z,5.20
2019-01-28T11:20:39.164Z,5.20
2019-01-28T11:23:08.465Z,5.20
2019-01-28T11:25:37.819Z,5.20
2019-01-28T11:28:07.180Z,5.10
2019-01-28T11:30:40.906Z,5.20
2019-01-28T11:33:10.378Z,5.30
2019-01-28T11:35:40.397Z,5.40
2019-01-28T11:38:09.844Z,5.30
2019-01-28T11:40:39.261Z,5.30
2019-01-28T11:43:08.639Z,5.50
2019-01-28T11:45:41.269Z,5.40
2019-01-28T11:48:10.786Z,5.40
2019-01-28T11:50:40.033Z,5.40
2019-01-28T11:53:09.297Z,5.40
2019-01-28T11:55:38.597Z,5.40
2019-01-28T11:58:07.955Z,5.40
2019-01-28T12:00:59.940Z,5.50
2019-01-28T12:03:29.506Z,5.50
2019-01-28T12:05:58.762Z,5.50
2019-01-28T12:08:28.134Z,5.50
2019-01-28T12:10:57.382Z,5.60
2019-01-28T12:13:26.637Z,5.50
2019-01-28T12:15:55.923Z,5.40
2019-01-28T12:18:25.183Z,5.40
2019-01-28T12:20:54.461Z,5.50
2019-01-28T12:23:23.776Z,5.40
2019-01-28T12:25:53.019Z,5.40
2019-01-28T12:28:22.297Z,5.50
2019-01-28T12:30:51.621Z,5.50
2019-01-28T12:33:20.875Z,5.40
2019-01-28T12:35:50.241Z,5.40
2019-01-28T12:38:19.525Z,5.40
2019-01-28T12:40:48.777Z,5.40
2019-01-28T12:43:18.033Z,5.50
2019-01-28T12:45:47.345Z,5.40
2019-01-28T12:48:16.617Z,5.40
2019-01-28T12:50:45.973Z,5.40
2019-01-28T12:53:15.302Z,5.30
2019-01-28T12:55:44.596Z,5.30
2019-01-28T12:58:13.950Z,5.30
2019-01-28T13:00:46.940Z,5.40
2019-01-28T13:03:16.597Z,5.30
2019-01-28T13:05:45.860Z,5.30
2019-01-28T13:08:15.173Z,5.20
2019-01-28T13:10:44.428Z,5.20
2019-01-28T13:13:13.691Z,5.30
2019-01-28T13:15:42.956Z,5.20
2019-01-28T13:18:12.216Z,5.20
2019-01-28T13:20:41.755Z,5.20
2019-01-28T13:23:11.053Z,5.20
2019-01-28T13:25:40.322Z,5.20
2019-01-28T13:28:09.657Z,5.20
2019-01-28T13:30:39.371Z,5.20
2019-01-28T13:33:13.888Z,5.10
2019-01-28T13:35:43.361Z,5.10
2019-01-28T13:38:12.661Z,5.10
2019-01-28T13:40:42.081Z,5.10
2019-01-28T13:43:11.442Z,5.10
2019-01-28T13:45:40.700Z,5.20
2019-01-28T13:48:13.048Z,5.30
2019-01-28T13:50:42.334Z,5.20
2019-01-28T13:53:11.798Z,5.30
2019-01-28T13:55:41.066Z,5.20
2019-01-28T13:58:10.356Z,5.30
2019-01-28T14:00:39.688Z,5.30
2019-01-28T14:03:09.174Z,5.30
2019-01-28T14:05:38.464Z,5.20
2019-01-28T14:08:08.029Z,5.10
2019-01-28T14:10:37.324Z,5.10
2019-01-28T14:13:06.861Z,5.10
2019-01-28T14:15:38.391Z,5.10
2019-01-28T14:18:09.672Z,5.00
2019-01-28T14:20:39.025Z,5.00
2019-01-28T14:23:08.324Z,5.00
2019-01-28T14:25:37.632Z,5.00
2019-01-28T14:28:08.082Z,5.00
2019-01-28T14:30:39.727Z,5.10
2019-01-28T14:33:09.366Z,5.20
2019-01-28T14:35:39.537Z,5.00
2019-01-28T14:38:10.772Z,5.10
2019-01-28T14:40:41.143Z,5.10
2019-01-28T14:43:10.513Z,5.20
2019-01-28T14:45:39.776Z,5.20
2019-01-28T14:48:10.982Z,5.20
2019-01-28T14:50:40.436Z,5.20
2019-01-28T14:53:09.805Z,5.20
2019-01-28T14:55:39.081Z,5.20
2019-01-28T14:58:10.500Z,5.20
2019-01-28T15:00:40.937Z,5.20
2019-01-28T15:03:10.332Z,5.20
2019-01-28T15:05:39.698Z,5.20
2019-01-28T15:08:09.077Z,5.10
2019-01-28T15:10:38.420Z,5.10
2019-01-28T15:13:07.688Z,5.20
2019-01-28T15:15:38.145Z,5.20
2019-01-28T15:18:09.134Z,5.20
2019-01-28T15:20:38.467Z,5.20
2019-01-28T15:23:07.738Z,5.20
2019-01-28T15:25:37.042Z,5.20
2019-01-28T15:28:06.312Z,5.20
2019-01-28T15:30:35.812Z,5.30
2019-01-28T15:33:05.300Z,5.30
2019-01-28T15:35:34.669Z,5.40
2019-01-28T15:38:04.049Z,5.50
2019-01-28T15:40:34.564Z,5.60
2019-01-28T15:43:04.120Z,5.60
2019-01-28T15:45:35.798Z,5.50
2019-01-28T15:48:06.138Z,5.60
2019-01-28T15:50:35.863Z,5.60
2019-01-28T15:53:06.138Z,5.60
2019-01-28T15:55:37.431Z,5.60
2019-01-28T15:58:08.010Z,5.60
2019-01-28T16:00:38.334Z,5.60
2019-01-28T16:03:09.167Z,5.60
2019-01-28T16:05:38.677Z,5.60
2019-01-28T16:08:08.512Z,5.60
2019-01-28T16:10:37.815Z,5.60
2019-01-28T16:13:07.077Z,5.60
2019-01-28T16:15:39.045Z,5.50
2019-01-28T16:18:09.025Z,5.40
2019-01-28T16:20:38.990Z,5.30
2019-01-28T16:23:08.775Z,5.30
2019-01-28T16:25:38.076Z,5.30
2019-01-28T16:28:07.347Z,5.20
2019-01-28T16:30:37.128Z,5.20
2019-01-28T16:33:07.024Z,5.10
2019-01-28T16:35:36.285Z,5.00
2019-01-28T16:38:06.178Z,5.00
2019-01-28T16:40:36.296Z,5.00
2019-01-28T16:43:06.495Z,4.90
2019-01-28T16:45:35.796Z,4.90
2019-01-28T16:48:06.156Z,4.90
2019-01-28T16:50:35.661Z,4.90
2019-01-28T16:53:05.665Z,4.90
2019-01-28T16:55:34.968Z,4.90
2019-01-28T16:58:05.133Z,4.90
2019-01-28T17:00:36.703Z,4.90
2019-01-28T17:03:07.481Z,5.00
2019-01-28T17:05:37.051Z,5.00
2019-01-28T17:08:06.703Z,5.00
2019-01-28T17:10:36.007Z,5.00
2019-01-28T17:13:06.669Z,5.00
2019-01-28T17:15:35.937Z,4.90
2019-01-28T17:18:05.994Z,4.80
2019-01-28T17:20:35.991Z,4.70
2019-01-28T17:23:05.898Z,4.70
2019-01-28T17:25:43.361Z,4.70
2019-01-28T17:28:12.653Z,4.70
2019-01-28T17:30:43.898Z,4.80
2019-01-28T17:33:13.362Z,4.70
2019-01-28T17:35:42.655Z,4.70
2019-01-28T17:38:12.008Z,4.60
2019-01-28T17:40:42.895Z,4.60
2019-01-28T17:43:13.310Z,4.60
2019-01-28T17:45:42.613Z,4.60
2019-01-28T17:48:12.512Z,4.60
2019-01-28T17:50:43.654Z,4.60
2019-01-28T17:53:12.890Z,4.60
2019-01-28T17:55:42.176Z,4.60
2019-01-28T17:58:11.437Z,4.70
2019-01-28T18:00:48.172Z,4.70
2019-01-28T18:03:17.553Z,4.70
2019-01-28T18:05:46.796Z,4.70
2019-01-28T18:08:16.122Z,4.60
2019-01-28T18:10:45.386Z,4.60
2019-01-28T18:13:14.648Z,4.60
2019-01-28T18:15:43.936Z,4.60
2019-01-28T18:18:13.216Z,4.50
2019-01-28T18:20:42.488Z,4.40
2019-01-28T18:23:18.519Z,4.40
2019-01-28T18:25:47.796Z,4.30
2019-01-28T18:28:17.064Z,4.40
2019-01-28T18:30:48.773Z,4.40
2019-01-28T18:33:18.137Z,4.50
2019-01-28T18:35:47.609Z,4.50
2019-01-28T18:38:16.896Z,4.50
2019-01-28T18:40:46.196Z,4.40
2019-01-28T18:43:15.445Z,4.40
2019-01-28T18:45:44.741Z,4.40
2019-01-28T18:48:14.007Z,4.40
2019-01-28T18:50:43.277Z,4.40
2019-01-28T18:53:12.670Z,4.40
2019-01-28T18:55:41.974Z,4.30
2019-01-28T18:58:11.237Z,4.30
2019-01-28T19:00:40.579Z,4.40
2019-01-28T19:03:09.833Z,4.40
2019-01-28T19:06:01.209Z,4.40
2019-01-28T19:08:47.031Z,4.30
2019-01-28T19:11:32.068Z,4.30
2019-01-28T19:14:23.169Z,4.30
2019-01-28T19:17:17.681Z,4.30
2019-01-28T19:19:56.329Z,4.20
2019-01-28T19:22:26.872Z,4.20
2019-01-28T19:24:56.156Z,4.30
2019-01-28T19:27:25.434Z,4.10
2019-01-28T19:29:54.779Z,4.10
2019-01-28T19:32:24.113Z,4.00
2019-01-28T19:34:53.533Z,4.00
2019-01-28T19:37:22.842Z,4.00
2019-01-28T19:39:52.173Z,4.10
2019-01-28T19:42:21.437Z,4.10
2019-01-28T19:44:50.735Z,4.20
2019-01-28T19:47:20.035Z,4.10
2019-01-28T19:49:49.350Z,4.20
2019-01-28T19:52:18.661Z,4.20
2019-01-28T19:54:47.923Z,4.20
2019-01-28T19:57:17.308Z,4.20
2019-01-28T19:59:46.595Z,4.10
2019-01-28T20:02:15.861Z,4.10
2019-01-28T20:04:45.179Z,4.00
2019-01-28T20:07:14.475Z,3.80
2019-01-28T20:09:43.858Z,3.70
2019-01-28T20:12:13.141Z,3.60
2019-01-28T20:14:42.452Z,3.60
2019-01-28T20:17:11.811Z,3.50
2019-01-28T20:19:41.159Z,3.40
2019-01-28T20:22:12.440Z,3.50
2019-01-28T20:24:41.818Z,3.50
2019-01-28T20:27:11.152Z,3.60
2019-01-28T20:29:40.453Z,3.60
2019-01-28T20:32:09.719Z,3.60
2019-01-28T20:34:43.489Z,3.70
2019-01-28T20:37:10.133Z,3.80
2019-01-28T20:39:39.467Z,3.70
2019-01-28T20:42:08.854Z,3.80
2019-01-28T20:44:38.163Z,3.80
2019-01-28T20:47:07.618Z,3.80
2019-01-28T20:49:37.116Z,3.70
2019-01-28T20:52:06.457Z,3.70
2019-01-28T20:54:35.730Z,3.60
2019-01-28T20:57:05.082Z,3.50
2019-01-28T20:59:34.420Z,3.60
2019-01-28T21:02:03.774Z,3.60
2019-01-28T21:04:33.131Z,3.60
2019-01-28T21:07:02.564Z,3.60
2019-01-28T21:09:31.883Z,3.60
2019-01-28T21:12:01.201Z,3.70
2019-01-28T21:14:30.513Z,3.70
2019-01-28T21:16:59.847Z,3.70
2019-01-28T21:19:29.117Z,3.80
2019-01-28T21:21:58.409Z,3.80
2019-01-28T21:24:27.745Z,3.70
2019-01-28T21:26:57.053Z,3.70
2019-01-28T21:29:26.473Z,3.70
2019-01-28T21:31:55.773Z,3.70
2019-01-28T21:34:25.119Z,3.70
2019-01-28T21:37:02.492Z,3.70
2019-01-28T21:39:31.770Z,3.60
2019-01-28T21:42:01.110Z,3.60
2019-01-28T21:44:30.447Z,3.50
2019-01-28T21:46:59.718Z,3.40
2019-01-28T21:49:29.020Z,3.40
2019-01-28T21:51:58.284Z,3.30
2019-01-28T21:54:27.568Z,3.40
2019-01-28T21:56:56.898Z,3.50
2019-01-28T21:59:26.158Z,3.50
2019-01-28T22:01:55.450Z,3.40
2019-01-28T22:04:24.792Z,3.30
2019-01-28T22:06:54.064Z,3.20
2019-01-28T22:09:23.328Z,3.20
2019-01-28T22:11:52.714Z,3.20
2019-01-28T22:14:22.004Z,3.20
2019-01-28T22:16:51.304Z,3.20
2019-01-28T22:19:20.608Z,3.20
2019-01-28T22:21:49.905Z,3.10
2019-01-28T22:24:19.614Z,3.10
2019-01-28T22:26:49.076Z,3.10
2019-01-28T22:29:18.362Z,3.10
2019-01-28T22:31:47.692Z,3.10
2019-01-28T22:34:16.994Z,3.20
2019-01-28T22:36:46.272Z,3.10
2019-01-28T22:39:15.560Z,3.10
2019-01-28T22:41:44.912Z,3.00
2019-01-28T22:44:14.226Z,3.10
2019-01-28T22:46:43.488Z,3.00
2019-01-28T22:49:12.774Z,2.90
2019-01-28T22:51:42.023Z,2.90
2019-01-28T22:54:11.304Z,2.90
2019-01-28T22:56:40.658Z,2.90
2019-01-28T22:59:09.943Z,2.90
2019-01-28T23:01:41.202Z,2.90
2019-01-28T23:04:10.681Z,2.90
2019-01-28T23:06:39.948Z,2.90
2019-01-28T23:09:10.831Z,2.90
2019-01-28T23:11:40.207Z,2.90
2019-01-28T23:14:09.489Z,2.90
2019-01-28T23:16:38.905Z,2.80
2019-01-28T23:19:08.220Z,2.90
2019-01-28T23:21:37.494Z,2.80
2019-01-28T23:24:06.779Z,2.90
2019-01-28T23:26:36.137Z,3.10
2019-01-28T23:29:05.903Z,3.10
2019-01-28T23:31:35.151Z,3.20
2019-01-28T23:34:04.553Z,3.20
2019-01-28T23:36:33.823Z,3.10
2019-01-28T23:39:03.540Z,3.10
2019-01-28T23:41:32.845Z,3.00
2019-01-28T23:44:02.133Z,3.00
2019-01-28T23:46:31.402Z,2.90
2019-01-28T23:49:00.713Z,2.90
2019-01-28T23:51:29.997Z,2.90
2019-01-28T23:53:59.268Z,2.90
2019-01-28T23:56:28.573Z,2.90
2019-01-28T23:58:57.893Z,2.90
